createdAt,value
2018-08-28T00:51:01.043Z,49.57
2018-08-28T00:56:07.819Z,49.57
2018-08-28T02:33:16.359Z,53.13
2018-08-28T02:38:19.699Z,53.31
2018-08-28T02:43:23.798Z,53.48
2018-08-28T03:45:57.983Z,56.48
2018-08-28T03:51:01.323Z,56.71
2018-08-28T03:56:17.023Z,57.07
2018-08-28T04:35:52.386Z,58.53
2018-08-28T04:40:55.718Z,58.69
2018-08-28T04:45:59.447Z,58.91
2018-08-28T04:51:03.186Z,58.92
2018-08-28T04:56:07.295Z,59.22
2018-08-28T05:01:10.630Z,59.33
2018-08-28T05:06:16.985Z,59.37
2018-08-28T05:11:20.321Z,59.44
2018-08-28T05:16:24.418Z,59.63
2018-08-28T05:21:27.759Z,59.81
2018-08-28T05:26:38.086Z,59.85
2018-08-28T05:31:41.409Z,60.09
2018-08-28T05:36:44.740Z,59.86
2018-08-28T05:41:48.079Z,59.94
2018-08-28T05:46:51.413Z,59.81
2018-08-28T05:51:54.750Z,59.99
2018-08-28T05:56:58.087Z,60.05
2018-08-28T06:02:01.416Z,60.09
2018-08-28T06:07:04.754Z,60.15
2018-08-28T06:12:08.087Z,60.40
2018-08-28T06:17:11.419Z,60.49
2018-08-28T06:22:14.749Z,60.60
2018-08-28T06:27:18.078Z,60.36
2018-08-28T07:01:07.276Z,59.13
2018-08-28T07:06:11.373Z,58.68
2018-08-28T07:11:14.711Z,58.39
2018-08-28T08:02:19.005Z,57.97
2018-08-28T08:07:23.107Z,57.80
2018-08-28T08:12:26.445Z,57.69
2018-08-28T09:03:29.906Z,55.29
2018-08-28T09:08:33.231Z,54.33
2018-08-28T09:13:36.570Z,54.68
2018-08-28T10:04:39.581Z,51.96
2018-08-28T10:09:42.892Z,50.92
2018-08-28T10:14:46.230Z,51.44
2018-08-28T11:05:48.857Z,50.08
2018-08-28T11:10:52.194Z,49.57
2018-08-28T12:01:56.791Z,45.17
2018-08-28T12:07:00.049Z,44.51
2018-08-28T12:12:04.142Z,44.32
2018-08-28T13:03:09.956Z,40.38
2018-08-28T13:08:13.283Z,40.32
2018-08-28T13:13:16.971Z,40.06
2018-08-28T14:04:22.374Z,37.46
2018-08-28T14:09:25.719Z,37.34
2018-08-28T14:14:29.062Z,36.33
2018-08-28T14:48:18.118Z,33.36
2018-08-28T14:53:21.458Z,35.17
2018-08-28T14:58:24.796Z,33.78
2018-08-28T15:32:14.664Z,32.52
2018-08-28T15:37:18.007Z,32.78
2018-08-28T15:42:21.364Z,32.24
2018-08-28T15:47:24.698Z,31.42
2018-08-28T15:52:28.043Z,30.86
2018-08-28T15:57:31.383Z,30.76
2018-08-28T16:02:35.488Z,30.41
2018-08-28T16:07:38.822Z,30.22
2018-08-28T16:12:42.149Z,30.37
2018-08-28T16:17:46.243Z,30.36
2018-08-28T16:22:49.586Z,30.30
2018-08-28T16:27:53.747Z,30.69
2018-08-28T16:32:57.093Z,30.95
2018-08-28T16:38:00.430Z,31.13
2018-08-28T16:43:03.803Z,32.01
2018-08-28T16:48:07.124Z,32.09
2018-08-28T16:53:10.464Z,32.45
2018-08-28T16:58:13.816Z,32.35
2018-08-28T17:03:17.144Z,33.05
2018-08-28T17:08:20.486Z,33.43
2018-08-28T17:13:23.822Z,33.45
2018-08-28T17:18:27.151Z,34.02
2018-08-28T17:23:31.247Z,34.49
2018-08-28T17:28:34.568Z,34.65
2018-08-28T17:33:37.895Z,35.27
2018-08-28T17:38:41.239Z,35.43
2018-08-28T17:43:45.950Z,35.71
2018-08-28T17:48:49.340Z,36.28
2018-08-28T17:53:52.622Z,36.88
2018-08-28T17:58:55.951Z,37.15
2018-08-28T18:03:59.327Z,37.58
2018-08-28T18:09:02.632Z,37.99
2018-08-28T18:14:05.975Z,38.54
2018-08-28T18:19:09.329Z,38.62
2018-08-28T18:24:12.677Z,38.80
2018-08-28T18:29:16.775Z,39.17
2018-08-28T18:34:20.111Z,39.49
2018-08-28T18:39:23.442Z,39.96
2018-08-28T18:44:26.784Z,40.26
2018-08-28T18:49:30.111Z,40.60
2018-08-28T18:54:33.450Z,41.01
2018-08-28T18:59:36.778Z,41.20
2018-08-28T19:04:40.871Z,41.51
2018-08-28T19:09:44.218Z,41.81
2018-08-28T19:14:48.311Z,41.99
2018-08-28T19:19:51.641Z,42.41
2018-08-28T19:24:54.982Z,42.53
2018-08-28T19:29:59.070Z,42.73
2018-08-28T19:35:02.403Z,43.26
2018-08-28T19:40:05.736Z,43.38
2018-08-28T19:45:09.075Z,43.60
2018-08-28T19:50:12.408Z,43.77
2018-08-28T19:55:15.741Z,43.86
2018-08-28T20:00:19.095Z,44.05
2018-08-28T20:05:22.428Z,44.18
2018-08-28T20:10:25.762Z,44.34
2018-08-28T20:15:29.094Z,44.86
2018-08-28T20:20:32.440Z,45.22
2018-08-28T20:25:35.769Z,45.92
2018-08-28T20:30:39.095Z,45.81
2018-08-28T20:35:43.355Z,45.93
2018-08-28T20:40:46.682Z,46.24
2018-08-28T20:45:50.055Z,46.73
2018-08-28T20:50:53.383Z,46.81
2018-08-28T20:55:56.742Z,46.72
2018-08-28T21:01:00.846Z,46.75
2018-08-28T21:06:05.174Z,47.11
2018-08-28T21:11:08.506Z,47.58
2018-08-28T21:16:12.594Z,47.61
2018-08-28T21:21:15.927Z,47.89
2018-08-28T21:26:19.284Z,47.96
2018-08-28T21:31:22.602Z,48.42
2018-08-28T21:36:25.943Z,48.98
2018-08-28T21:41:29.321Z,48.92
2018-08-28T21:46:32.614Z,49.26
2018-08-28T21:51:36.711Z,49.40
2018-08-28T21:56:40.043Z,49.58
2018-08-28T22:01:43.390Z,49.83
2018-08-28T22:06:46.726Z,50.35
2018-08-28T22:11:50.075Z,50.73
2018-08-28T22:16:53.427Z,50.65
2018-08-28T22:21:56.763Z,50.73
2018-08-28T22:27:00.089Z,51.10
2018-08-28T22:32:03.568Z,51.23
2018-08-28T22:37:06.896Z,51.72
2018-08-28T22:42:10.226Z,52.43
2018-08-28T22:47:13.551Z,52.28
2018-08-28T22:52:16.881Z,52.62
2018-08-28T22:57:20.214Z,52.96
2018-08-28T23:02:23.550Z,53.14
2018-08-28T23:07:26.887Z,53.58
2018-08-28T23:12:30.271Z,53.88
